createdAt,value
2022-10-06T00:01:17.648Z,84.58
2022-10-06T00:03:40.496Z,84.79
2022-10-06T00:06:03.891Z,84.99
2022-10-06T00:08:27.067Z,84.86
2022-10-06T00:10:49.925Z,85.07
2022-10-06T00:13:12.769Z,85.69
2022-10-06T00:15:35.602Z,86.22
2022-10-06T00:17:58.753Z,86.22
2022-10-06T00:20:21.331Z,86.30
2022-10-06T00:22:48.101Z,85.97
2022-10-06T00:25:13.156Z,86.18
2022-10-06T00:27:38.959Z,86.01
2022-10-06T00:30:02.220Z,86.00
2022-10-06T00:32:24.904Z,85.74
2022-10-06T00:34:47.615Z,85.43
2022-10-06T00:37:10.160Z,85.37
2022-10-06T00:39:33.024Z,85.18
2022-10-06T00:41:55.584Z,85.62
2022-10-06T00:44:18.861Z,85.48
2022-10-06T00:46:46.240Z,85.15
2022-10-06T00:49:22.113Z,84.97
2022-10-06T00:51:51.645Z,84.92
2022-10-06T00:54:15.135Z,84.54
2022-10-06T00:56:40.132Z,85.12
2022-10-06T00:59:02.662Z,85.71
2022-10-06T01:01:27.195Z,85.93
2022-10-06T01:03:57.643Z,85.78
2022-10-06T01:06:20.327Z,85.99
2022-10-06T01:08:42.989Z,86.36
2022-10-06T01:11:06.728Z,86.54
2022-10-06T01:13:30.701Z,86.41
2022-10-06T01:16:22.649Z,85.98
2022-10-06T01:18:47.831Z,86.51
2022-10-06T01:21:28.079Z,87.19
2022-10-06T01:23:51.089Z,88.09
2022-10-06T01:26:16.013Z,88.19
2022-10-06T01:28:39.536Z,88.62
2022-10-06T01:31:02.916Z,88.46
2022-10-06T01:33:27.457Z,88.40
2022-10-06T01:35:52.171Z,88.27
2022-10-06T01:38:14.981Z,87.93
2022-10-06T01:40:37.535Z,87.46
2022-10-06T01:43:00.136Z,87.46
2022-10-06T01:45:23.648Z,87.44
2022-10-06T01:47:46.307Z,87.50
2022-10-06T01:50:09.207Z,87.66
2022-10-06T01:52:31.917Z,88.17
2022-10-06T01:54:54.746Z,88.94
2022-10-06T01:57:17.787Z,89.25
2022-10-06T01:59:41.030Z,89.64
2022-10-06T02:02:04.640Z,89.66
2022-10-06T02:04:27.740Z,89.49
2022-10-06T02:06:51.622Z,88.78
2022-10-06T02:09:14.118Z,88.39
2022-10-06T02:11:38.711Z,88.08
2022-10-06T02:14:02.348Z,87.81
2022-10-06T02:16:26.676Z,87.41
2022-10-06T02:18:49.605Z,87.93
2022-10-06T02:21:20.044Z,88.69
2022-10-06T02:23:42.583Z,89.04
2022-10-06T02:26:07.282Z,88.61
2022-10-06T02:28:32.102Z,88.24
2022-10-06T02:31:06.294Z,88.28
2022-10-06T02:33:30.194Z,88.49
2022-10-06T02:35:56.766Z,88.34
2022-10-06T02:38:20.359Z,88.63
2022-10-06T02:40:44.113Z,88.17
2022-10-06T02:43:06.652Z,88.44
2022-10-06T02:45:31.113Z,88.61
2022-10-06T02:47:54.706Z,88.72
2022-10-06T02:50:17.674Z,88.53
2022-10-06T02:52:43.044Z,88.95
2022-10-06T02:55:07.756Z,88.75
2022-10-06T02:57:30.495Z,88.41
2022-10-06T02:59:54.158Z,89.01
2022-10-06T03:02:16.855Z,88.74
2022-10-06T03:04:39.952Z,88.45
2022-10-06T03:07:02.726Z,88.60
2022-10-06T03:09:30.768Z,89.50
2022-10-06T03:11:53.536Z,89.91
2022-10-06T03:14:23.143Z,90.82
2022-10-06T03:16:46.496Z,91.37
2022-10-06T03:19:14.833Z,91.56
2022-10-06T03:21:42.857Z,91.41
2022-10-06T03:24:06.750Z,90.77
2022-10-06T03:26:31.857Z,90.81
2022-10-06T03:28:55.973Z,90.73
2022-10-06T03:31:25.653Z,90.74
2022-10-06T03:33:48.334Z,90.48
2022-10-06T03:36:13.270Z,90.32
2022-10-06T03:38:36.991Z,90.10
2022-10-06T03:41:24.826Z,90.37
2022-10-06T03:43:49.385Z,90.54
2022-10-06T03:46:14.150Z,90.56
2022-10-06T03:48:36.803Z,90.53
2022-10-06T03:51:01.701Z,90.05
2022-10-06T03:53:28.016Z,89.92
2022-10-06T03:55:50.946Z,89.92
2022-10-06T03:58:17.344Z,89.70
2022-10-06T04:00:40.452Z,89.46
2022-10-06T04:03:03.132Z,89.43
2022-10-06T04:05:26.671Z,89.36
2022-10-06T04:07:49.349Z,89.18
2022-10-06T04:10:12.688Z,88.77
2022-10-06T04:12:36.183Z,88.77
2022-10-06T04:15:00.203Z,88.72
2022-10-06T04:17:23.978Z,88.65
2022-10-06T04:19:46.556Z,88.29
2022-10-06T04:22:09.328Z,88.36
2022-10-06T04:24:32.016Z,87.96
2022-10-06T04:27:14.584Z,88.45
2022-10-06T04:29:39.060Z,89.03
2022-10-06T04:32:02.448Z,89.08
2022-10-06T04:34:29.087Z,89.29
2022-10-06T04:36:52.107Z,89.10
2022-10-06T04:39:14.984Z,88.86
2022-10-06T04:41:42.246Z,89.52
2022-10-06T04:44:07.708Z,90.15
2022-10-06T04:46:42.731Z,90.34
2022-10-06T04:49:07.473Z,90.40
2022-10-06T04:51:31.439Z,89.98
2022-10-06T04:53:55.788Z,90.10
2022-10-06T04:56:21.606Z,90.21
2022-10-06T04:58:49.197Z,89.75
2022-10-06T05:01:16.714Z,89.29
2022-10-06T05:03:39.457Z,89.46
2022-10-06T05:06:08.091Z,89.51
2022-10-06T05:08:31.471Z,89.11
2022-10-06T05:11:06.439Z,88.96
2022-10-06T05:13:29.403Z,88.71
2022-10-06T05:15:59.544Z,88.91
2022-10-06T05:18:24.319Z,88.96
2022-10-06T05:20:55.682Z,88.76
2022-10-06T05:23:18.807Z,88.79
2022-10-06T05:25:51.655Z,88.74
2022-10-06T05:28:14.771Z,88.47
2022-10-06T05:30:37.561Z,88.01
2022-10-06T05:33:00.261Z,87.73
2022-10-06T05:35:23.388Z,87.48
2022-10-06T05:37:46.498Z,88.02
2022-10-06T05:40:11.662Z,87.94
2022-10-06T05:42:34.877Z,87.48
2022-10-06T05:44:57.515Z,87.65
2022-10-06T05:47:20.865Z,88.14
2022-10-06T05:49:43.839Z,88.13
2022-10-06T05:52:07.123Z,88.00
2022-10-06T05:54:32.298Z,87.50
2022-10-06T05:56:55.155Z,87.36
2022-10-06T05:59:18.487Z,86.93
2022-10-06T06:01:43.671Z,86.34
2022-10-06T06:04:14.330Z,85.95
2022-10-06T06:06:43.907Z,85.30
2022-10-06T06:09:15.270Z,85.54
2022-10-06T06:11:41.920Z,86.04
2022-10-06T06:14:16.650Z,86.34
2022-10-06T06:16:40.855Z,85.63
2022-10-06T06:19:03.987Z,85.40
2022-10-06T06:21:27.472Z,84.97
2022-10-06T06:23:50.204Z,84.99
2022-10-06T06:26:14.918Z,85.17
2022-10-06T06:28:41.548Z,84.96
2022-10-06T06:31:07.387Z,84.50
2022-10-06T06:33:40.849Z,84.36
2022-10-06T06:36:15.403Z,83.94
2022-10-06T06:38:38.524Z,83.70
2022-10-06T06:41:01.901Z,82.52
2022-10-06T06:43:24.640Z,81.96
2022-10-06T06:46:10.857Z,81.54
2022-10-06T06:48:55.527Z,82.19
2022-10-06T06:51:24.041Z,81.27
2022-10-06T06:53:46.750Z,81.57
2022-10-06T06:56:10.187Z,81.47
2022-10-06T06:58:33.602Z,80.87
2022-10-06T07:01:13.826Z,81.06
2022-10-06T07:03:56.582Z,81.31
2022-10-06T07:06:23.501Z,79.66
2022-10-06T07:08:49.706Z,78.83
2022-10-06T07:11:14.805Z,78.33
2022-10-06T07:13:39.749Z,78.48
2022-10-06T07:16:20.965Z,79.07
2022-10-06T07:19:02.677Z,78.30
2022-10-06T07:21:44.419Z,77.01
2022-10-06T07:24:27.975Z,76.62
2022-10-06T07:26:50.603Z,77.67
2022-10-06T07:29:13.284Z,76.22
2022-10-06T07:31:36.798Z,75.09
2022-10-06T07:34:01.179Z,72.25
2022-10-06T07:36:24.959Z,68.38
2022-10-06T07:38:49.003Z,65.08
2022-10-06T07:41:20.762Z,64.66
2022-10-06T07:43:53.713Z,61.11
2022-10-06T07:46:34.949Z,57.63
2022-10-06T07:49:17.319Z,55.85
2022-10-06T07:51:43.039Z,55.33
2022-10-06T07:54:07.001Z,56.10
2022-10-06T07:56:47.031Z,58.13
2022-10-06T07:59:09.601Z,60.02
2022-10-06T08:01:32.293Z,62.66
2022-10-06T08:04:00.152Z,64.97
2022-10-06T08:06:25.321Z,64.83
2022-10-06T08:09:29.965Z,66.44
2022-10-06T08:11:54.465Z,67.90
2022-10-06T08:14:17.132Z,68.80
2022-10-06T08:16:39.816Z,69.87
2022-10-06T08:19:02.565Z,69.79
2022-10-06T08:21:30.859Z,69.08
2022-10-06T08:23:54.395Z,69.68
2022-10-06T08:26:19.140Z,69.84
2022-10-06T08:28:45.854Z,68.42
2022-10-06T08:31:11.688Z,68.34
2022-10-06T08:33:35.998Z,69.25
2022-10-06T08:36:09.910Z,68.20
2022-10-06T08:38:32.539Z,68.43
2022-10-06T08:40:55.060Z,68.31
2022-10-06T08:43:20.526Z,68.35
2022-10-06T08:45:45.831Z,68.75
2022-10-06T08:48:16.950Z,67.60
2022-10-06T08:51:10.637Z,67.47
2022-10-06T08:54:11.176Z,66.69
2022-10-06T08:56:54.528Z,66.36
2022-10-06T08:59:17.650Z,65.73
2022-10-06T09:01:50.736Z,65.01
2022-10-06T09:04:28.413Z,65.48
2022-10-06T09:07:00.006Z,65.14
2022-10-06T09:09:45.906Z,65.60
2022-10-06T09:12:18.086Z,66.47
2022-10-06T09:14:49.206Z,67.11
2022-10-06T09:17:19.714Z,65.72
2022-10-06T09:19:55.248Z,65.26
2022-10-06T09:22:21.607Z,64.63
2022-10-06T09:24:50.484Z,63.88
2022-10-06T09:27:20.404Z,63.45
2022-10-06T09:29:43.113Z,63.01
2022-10-06T09:32:06.837Z,62.00
2022-10-06T09:34:51.475Z,63.46
2022-10-06T09:37:14.677Z,63.25
2022-10-06T09:39:39.777Z,63.82
2022-10-06T09:42:17.494Z,64.59
2022-10-06T09:44:52.367Z,64.96
2022-10-06T09:47:32.016Z,63.56
2022-10-06T09:50:27.688Z,63.72
2022-10-06T09:53:03.509Z,63.18
2022-10-06T09:55:38.187Z,62.14
2022-10-06T09:58:02.903Z,62.82
2022-10-06T10:00:36.215Z,61.81
2022-10-06T10:03:02.896Z,61.19
2022-10-06T10:05:30.913Z,58.84
2022-10-06T10:08:18.597Z,55.27
2022-10-06T10:10:41.505Z,54.26
2022-10-06T10:13:18.895Z,54.26
2022-10-06T10:15:54.811Z,54.70
2022-10-06T10:18:23.024Z,55.92
2022-10-06T10:20:59.267Z,55.77
2022-10-06T10:23:31.066Z,56.10
2022-10-06T10:26:27.067Z,55.47
2022-10-06T10:28:52.267Z,54.44
2022-10-06T10:31:24.103Z,55.07
2022-10-06T10:34:24.999Z,55.09
2022-10-06T10:36:53.378Z,54.98
2022-10-06T10:39:52.497Z,55.70
2022-10-06T10:42:39.747Z,54.83
2022-10-06T10:45:07.813Z,56.24
2022-10-06T10:47:36.844Z,55.74
2022-10-06T10:50:11.810Z,56.66
2022-10-06T10:52:42.530Z,57.43
2022-10-06T10:55:26.830Z,55.84
2022-10-06T10:57:51.182Z,56.87
2022-10-06T11:00:25.376Z,56.28
2022-10-06T11:02:48.630Z,56.85
2022-10-06T11:05:55.828Z,57.09
2022-10-06T11:08:43.040Z,56.68
2022-10-06T11:11:42.271Z,56.31
2022-10-06T11:14:13.543Z,54.47
2022-10-06T11:16:42.113Z,53.34
2022-10-06T11:19:16.853Z,52.81
2022-10-06T11:21:54.843Z,53.32
2022-10-06T11:24:32.974Z,53.43
2022-10-06T11:27:01.156Z,54.52
2022-10-06T11:29:43.311Z,54.85
2022-10-06T11:32:21.678Z,54.25
2022-10-06T11:34:48.967Z,54.19
2022-10-06T11:37:38.817Z,52.92
2022-10-06T11:40:23.332Z,53.97
2022-10-06T11:42:53.235Z,53.58
2022-10-06T11:45:17.379Z,52.05
2022-10-06T11:48:22.298Z,53.14
2022-10-06T11:50:51.234Z,53.23
2022-10-06T11:53:32.299Z,53.41
2022-10-06T11:56:15.539Z,53.11
2022-10-06T11:58:58.330Z,52.45
2022-10-06T12:01:53.435Z,52.07
2022-10-06T12:04:20.634Z,51.38
2022-10-06T12:06:46.026Z,51.36
2022-10-06T12:09:23.807Z,49.92
2022-10-06T12:11:46.460Z,48.62
2022-10-06T12:17:43.171Z,50.09
2022-10-06T12:20:22.387Z,49.93
2022-10-06T12:22:51.094Z,49.81
2022-10-06T12:25:17.065Z,49.03
2022-10-06T12:28:06.211Z,49.41
2022-10-06T12:30:45.868Z,50.04
2022-10-06T12:33:16.860Z,49.79
2022-10-06T12:35:42.816Z,48.94
2022-10-06T12:38:26.660Z,48.75
2022-10-06T12:40:51.912Z,49.22
2022-10-06T12:43:23.023Z,48.67
2022-10-06T12:45:54.630Z,49.28
2022-10-06T12:48:47.730Z,48.83
2022-10-06T12:51:13.105Z,49.46
2022-10-06T12:54:06.197Z,49.46
2022-10-06T12:56:31.515Z,48.57
2022-10-06T12:58:55.862Z,49.07
2022-10-06T13:01:19.153Z,50.13
2022-10-06T13:03:48.699Z,49.63
2022-10-06T13:06:11.887Z,48.89
2022-10-06T13:08:36.581Z,50.22
2022-10-06T13:11:17.828Z,49.55
2022-10-06T13:14:12.833Z,49.77
2022-10-06T13:16:40.983Z,49.88
2022-10-06T13:19:03.773Z,50.63
2022-10-06T13:21:29.969Z,52.77
2022-10-06T13:23:52.739Z,52.53
2022-10-06T13:26:15.265Z,51.89
2022-10-06T13:28:43.846Z,52.19
2022-10-06T13:31:21.877Z,52.07
2022-10-06T13:33:45.887Z,52.20
2022-10-06T13:36:10.881Z,52.04
2022-10-06T13:38:35.932Z,55.21
2022-10-06T13:41:13.811Z,56.21
2022-10-06T13:43:43.202Z,55.31
2022-10-06T13:46:13.958Z,54.98
2022-10-06T13:48:37.783Z,55.27
2022-10-06T13:51:03.424Z,55.36
2022-10-06T13:53:30.503Z,55.49
2022-10-06T13:55:54.088Z,55.63
2022-10-06T13:58:18.368Z,55.92
2022-10-06T14:00:56.027Z,55.91
2022-10-06T14:06:15.954Z,55.06
2022-10-06T14:08:38.773Z,55.18
2022-10-06T14:11:05.071Z,55.53
2022-10-06T14:13:32.328Z,56.00
2022-10-06T14:15:59.021Z,56.19
2022-10-06T14:18:28.066Z,56.30
2022-10-06T14:20:57.272Z,56.46
2022-10-06T14:23:48.248Z,56.65
2022-10-06T14:26:12.995Z,56.84
2022-10-06T14:28:35.557Z,57.26
2022-10-06T14:30:59.033Z,56.97
2022-10-06T14:33:21.431Z,56.91
2022-10-06T14:35:44.118Z,57.29
2022-10-06T14:38:06.620Z,58.15
2022-10-06T14:40:29.247Z,58.08
2022-10-06T14:42:51.796Z,58.09
2022-10-06T14:45:14.444Z,57.76
2022-10-06T14:47:37.361Z,58.35
2022-10-06T14:50:00.408Z,58.96
2022-10-06T14:52:23.091Z,59.14
2022-10-06T14:54:46.435Z,59.53
2022-10-06T14:57:09.778Z,60.18
2022-10-06T14:59:32.738Z,60.35
2022-10-06T15:01:55.461Z,61.22
2022-10-06T15:04:20.432Z,61.07
2022-10-06T15:07:01.636Z,61.70
2022-10-06T15:09:24.248Z,61.92
2022-10-06T15:11:46.881Z,62.19
2022-10-06T15:14:09.972Z,62.30
2022-10-06T15:16:33.784Z,62.71
2022-10-06T15:18:58.770Z,62.61
2022-10-06T15:21:23.852Z,62.82
2022-10-06T15:23:48.113Z,62.76
2022-10-06T15:26:29.831Z,62.65
2022-10-06T15:29:01.820Z,63.13
2022-10-06T15:31:25.435Z,62.63
2022-10-06T15:33:52.312Z,62.55
2022-10-06T15:36:18.763Z,63.34
2022-10-06T15:38:41.332Z,63.79
2022-10-06T15:41:04.647Z,63.93
2022-10-06T15:43:47.093Z,64.05
2022-10-06T15:46:11.682Z,64.24
2022-10-06T15:48:34.339Z,64.80
2022-10-06T15:50:57.178Z,65.12
2022-10-06T15:53:22.503Z,65.29
2022-10-06T15:55:45.001Z,65.58
2022-10-06T15:58:07.499Z,65.76
2022-10-06T16:00:30.265Z,66.52
2022-10-06T16:02:52.769Z,66.62
2022-10-06T16:05:44.815Z,66.86
2022-10-06T16:08:07.424Z,67.03
2022-10-06T16:10:29.988Z,67.34
2022-10-06T16:12:52.511Z,67.54
2022-10-06T16:15:15.272Z,67.71
2022-10-06T16:17:37.743Z,67.79
2022-10-06T16:20:00.748Z,68.16
2022-10-06T16:22:23.359Z,68.35
2022-10-06T16:24:45.860Z,68.46
2022-10-06T16:27:12.919Z,68.57
2022-10-06T16:29:35.445Z,68.65
2022-10-06T16:31:59.308Z,68.77
2022-10-06T16:34:22.430Z,68.94
2022-10-06T16:36:45.914Z,69.07
2022-10-06T16:39:16.650Z,69.29
2022-10-06T16:41:39.453Z,69.15
2022-10-06T16:44:02.131Z,68.96
2022-10-06T16:46:26.608Z,69.00
2022-10-06T16:48:51.321Z,69.37
2022-10-06T16:51:22.664Z,69.63
2022-10-06T16:53:46.660Z,69.76
2022-10-06T16:56:15.847Z,70.05
2022-10-06T16:58:43.232Z,70.36
2022-10-06T17:01:06.318Z,70.30
2022-10-06T17:03:28.794Z,70.14
2022-10-06T17:05:51.266Z,70.27
2022-10-06T17:08:13.704Z,70.02
2022-10-06T17:10:36.894Z,70.05
2022-10-06T17:12:59.362Z,69.93
2022-10-06T17:15:22.139Z,69.97
2022-10-06T17:17:44.740Z,69.96
2022-10-06T17:20:08.556Z,69.87
2022-10-06T17:22:31.056Z,70.00
2022-10-06T17:24:53.477Z,70.20
2022-10-06T17:27:16.098Z,70.33
2022-10-06T17:29:39.132Z,70.38
2022-10-06T17:32:02.738Z,70.41
2022-10-06T17:34:29.130Z,70.66
2022-10-06T17:36:54.888Z,70.38
2022-10-06T17:39:21.946Z,70.69
2022-10-06T17:41:46.318Z,70.76
2022-10-06T17:44:13.363Z,70.81
2022-10-06T17:46:40.677Z,70.97
2022-10-06T17:49:07.624Z,71.06
2022-10-06T17:51:30.243Z,71.17
2022-10-06T17:53:58.066Z,71.13
2022-10-06T17:56:23.380Z,71.40
2022-10-06T17:58:56.744Z,71.49
2022-10-06T18:01:19.387Z,71.49
2022-10-06T18:03:42.886Z,71.53
2022-10-06T18:06:31.874Z,71.74
2022-10-06T18:08:56.154Z,71.75
2022-10-06T18:11:38.669Z,71.95
2022-10-06T18:14:22.276Z,72.47
2022-10-06T18:16:59.138Z,72.59
2022-10-06T18:19:34.048Z,73.14
2022-10-06T18:21:59.730Z,73.67
2022-10-06T18:24:25.539Z,73.89
2022-10-06T18:26:49.943Z,73.95
2022-10-06T18:29:12.550Z,73.57
2022-10-06T18:31:35.850Z,73.91
2022-10-06T18:36:42.995Z,74.05
2022-10-06T18:39:07.267Z,73.99
2022-10-06T18:41:59.147Z,74.11
2022-10-06T18:44:40.480Z,74.00
2022-10-06T18:47:22.345Z,74.23
2022-10-06T18:50:06.762Z,74.06
2022-10-06T18:52:29.362Z,74.00
2022-10-06T18:54:51.905Z,74.31
2022-10-06T18:57:14.557Z,74.34
2022-10-06T18:59:37.802Z,74.50
2022-10-06T19:02:00.675Z,74.70
2022-10-06T19:04:24.161Z,74.90
2022-10-06T19:06:50.029Z,74.62
2022-10-06T19:09:17.518Z,74.38
2022-10-06T19:11:48.643Z,74.30
2022-10-06T19:14:13.204Z,74.42
2022-10-06T19:16:36.090Z,74.90
2022-10-06T19:18:59.124Z,73.93
2022-10-06T19:21:21.707Z,74.17
2022-10-06T19:23:44.645Z,74.49
2022-10-06T19:26:11.104Z,75.16
2022-10-06T19:28:34.458Z,76.50
2022-10-06T19:31:02.796Z,76.55
2022-10-06T19:33:26.869Z,76.90
2022-10-06T19:35:54.359Z,76.56
2022-10-06T19:38:17.151Z,76.61
2022-10-06T19:40:39.679Z,76.56
2022-10-06T19:43:02.309Z,76.09
2022-10-06T19:45:24.917Z,76.54
2022-10-06T19:47:47.961Z,76.56
2022-10-06T19:50:12.822Z,76.91
2022-10-06T19:52:37.035Z,76.61
2022-10-06T19:55:00.783Z,76.76
2022-10-06T19:57:23.364Z,77.47
2022-10-06T19:59:45.901Z,76.91
2022-10-06T20:02:10.118Z,77.14
2022-10-06T20:05:08.284Z,77.79
2022-10-06T20:07:30.917Z,78.18
2022-10-06T20:09:54.018Z,78.43
2022-10-06T20:12:18.741Z,78.53
2022-10-06T20:14:44.665Z,79.16
2022-10-06T20:17:07.220Z,79.10
2022-10-06T20:19:30.998Z,78.93
2022-10-06T20:21:53.917Z,79.08
2022-10-06T20:24:22.877Z,79.76
2022-10-06T20:26:50.494Z,79.60
2022-10-06T20:29:15.265Z,80.05
2022-10-06T20:31:43.726Z,80.65
2022-10-06T20:34:08.542Z,80.74
2022-10-06T20:36:32.411Z,80.76
2022-10-06T20:39:14.260Z,80.46
2022-10-06T20:41:46.097Z,80.60
2022-10-06T20:44:09.123Z,80.38
2022-10-06T20:46:34.143Z,80.29
2022-10-06T20:49:04.234Z,81.10
2022-10-06T20:51:27.862Z,81.03
2022-10-06T20:53:50.663Z,80.78
2022-10-06T20:56:13.891Z,80.27
2022-10-06T20:58:36.736Z,80.62
2022-10-06T21:01:11.132Z,81.21
2022-10-06T21:03:35.161Z,81.41
2022-10-06T21:05:57.842Z,81.46
2022-10-06T21:08:20.354Z,81.28
2022-10-06T21:10:44.015Z,81.56
2022-10-06T21:13:06.875Z,82.47
2022-10-06T21:15:29.980Z,82.62
2022-10-06T21:17:58.952Z,82.39
2022-10-06T21:20:21.791Z,82.51
2022-10-06T21:22:44.465Z,82.89
2022-10-06T21:25:07.786Z,83.07
2022-10-06T21:27:30.614Z,82.96
2022-10-06T21:29:53.419Z,82.98
2022-10-06T21:32:15.981Z,82.97
2022-10-06T21:34:39.320Z,82.91
2022-10-06T21:37:02.386Z,83.07
2022-10-06T21:39:24.856Z,83.50
2022-10-06T21:41:47.282Z,83.45
2022-10-06T21:44:19.066Z,83.10
2022-10-06T21:46:45.923Z,83.08
2022-10-06T21:49:13.521Z,83.73
2022-10-06T21:51:36.165Z,83.86
2022-10-06T21:54:00.352Z,83.70
2022-10-06T21:56:23.711Z,84.04
2022-10-06T21:58:53.355Z,84.29
2022-10-06T22:01:16.034Z,84.34
2022-10-06T22:03:39.222Z,83.99
2022-10-06T22:06:06.232Z,84.28
2022-10-06T22:08:31.815Z,84.40
2022-10-06T22:10:54.314Z,84.60
2022-10-06T22:13:16.822Z,84.54
2022-10-06T22:15:39.371Z,84.48
2022-10-06T22:18:02.273Z,85.01
2022-10-06T22:20:24.774Z,84.50
2022-10-06T22:22:47.182Z,84.34
2022-10-06T22:25:09.874Z,84.05
2022-10-06T22:27:32.857Z,83.76
2022-10-06T22:29:55.602Z,83.81
2022-10-06T22:32:19.513Z,83.82
2022-10-06T22:34:42.076Z,83.99
2022-10-06T22:37:04.533Z,84.25
2022-10-06T22:39:26.982Z,83.99
2022-10-06T22:41:49.515Z,84.05
2022-10-06T22:44:12.042Z,84.34
2022-10-06T22:46:36.252Z,84.14
2022-10-06T22:48:58.989Z,84.63
2022-10-06T22:51:22.312Z,84.74
2022-10-06T22:53:45.129Z,85.15
2022-10-06T22:56:07.980Z,84.78
2022-10-06T22:58:30.965Z,84.83
2022-10-06T23:00:53.714Z,84.70
2022-10-06T23:03:19.909Z,84.55
2022-10-06T23:05:42.402Z,84.68
2022-10-06T23:08:06.263Z,84.69
2022-10-06T23:10:30.375Z,84.61
2022-10-06T23:12:54.790Z,84.68
2022-10-06T23:15:17.250Z,84.99
2022-10-06T23:17:40.739Z,84.59
2022-10-06T23:20:04.407Z,84.01
2022-10-06T23:22:27.493Z,84.77
2022-10-06T23:24:50.048Z,84.26
2022-10-06T23:27:14.281Z,84.10
2022-10-06T23:29:37.250Z,83.87
2022-10-06T23:31:59.890Z,83.83
2022-10-06T23:34:22.416Z,83.79
2022-10-06T23:36:44.983Z,84.09
2022-10-06T23:39:07.517Z,84.20
2022-10-06T23:41:29.982Z,83.95
2022-10-06T23:43:52.486Z,84.65
2022-10-06T23:46:15.238Z,84.83
2022-10-06T23:48:37.877Z,85.17
2022-10-06T23:51:02.869Z,85.28
2022-10-06T23:53:26.135Z,84.66
2022-10-06T23:55:48.698Z,84.75
2022-10-06T23:58:11.549Z,84.66
